createdAt,value
2022-09-18T00:00:29.380Z,0
2022-09-18T00:01:30.517Z,0
2022-09-18T00:02:30.531Z,0
2022-09-18T00:03:30.156Z,0
2022-09-18T00:04:30.095Z,0
2022-09-18T00:05:29.964Z,0
2022-09-18T00:06:29.818Z,0
2022-09-18T00:07:29.792Z,0
2022-09-18T00:08:29.258Z,0
2022-09-18T00:09:30.060Z,0
2022-09-18T00:10:29.998Z,0
2022-09-18T00:11:30.249Z,0
2022-09-18T00:12:29.970Z,0
2022-09-18T00:13:29.188Z,0
2022-09-18T00:14:30.314Z,0
2022-09-18T00:15:29.924Z,0
2022-09-18T00:16:29.792Z,0
2022-09-18T00:17:29.516Z,0
2022-09-18T00:18:29.376Z,0
2022-09-18T00:19:29.352Z,0
2022-09-18T00:20:29.349Z,0
2022-09-18T00:21:30.223Z,0
2022-09-18T00:22:30.071Z,0
2022-09-18T00:23:29.803Z,0
2022-09-18T00:24:29.553Z,0
2022-09-18T00:25:29.284Z,0
2022-09-18T00:26:30.038Z,0
2022-09-18T00:27:29.999Z,0
2022-09-18T00:28:29.228Z,0
2022-09-18T00:29:29.724Z,0
2022-09-18T00:30:30.054Z,0
2022-09-18T00:31:30.164Z,0
2022-09-18T00:32:29.692Z,0
2022-09-18T00:33:29.788Z,0
2022-09-18T00:34:29.649Z,0
2022-09-18T00:35:29.372Z,0
2022-09-18T00:36:29.896Z,0
2022-09-18T00:37:29.473Z,0
2022-09-18T00:38:29.594Z,0
2022-09-18T00:39:29.317Z,0
2022-09-18T00:40:29.698Z,0
2022-09-18T00:41:29.326Z,0
2022-09-18T00:42:29.520Z,0
2022-09-18T00:43:28.738Z,0
2022-09-18T00:44:29.499Z,0
2022-09-18T00:45:29.221Z,0
2022-09-18T00:46:30.223Z,0
2022-09-18T00:47:28.950Z,0
2022-09-18T00:48:29.439Z,0
2022-09-18T00:49:29.031Z,0
2022-09-18T00:50:29.416Z,0
2022-09-18T00:51:29.388Z,0
2022-09-18T00:52:29.396Z,0
2022-09-18T00:53:29.487Z,0
2022-09-18T00:54:29.123Z,0
2022-09-18T00:55:29.333Z,0
2022-09-18T00:56:28.825Z,0
2022-09-18T00:57:29.855Z,0
2022-09-18T00:58:29.041Z,0
2022-09-18T00:59:28.791Z,0
2022-09-18T01:00:29.289Z,0
2022-09-18T01:01:28.877Z,0
2022-09-18T01:02:30.359Z,0
2022-09-18T01:03:29.233Z,0
2022-09-18T01:04:29.219Z,0
2022-09-18T01:05:29.050Z,0
2022-09-18T01:06:28.907Z,0
2022-09-18T01:07:28.897Z,0
2022-09-18T01:08:29.149Z,0
2022-09-18T01:09:37.818Z,0
2022-09-18T01:10:29.122Z,0
2022-09-18T01:11:28.581Z,0
2022-09-18T01:12:29.090Z,0
2022-09-18T01:13:28.571Z,0
2022-09-18T01:14:28.796Z,0
2022-09-18T01:15:28.770Z,0
2022-09-18T01:16:29.475Z,0
2022-09-18T01:17:28.238Z,0
2022-09-18T01:18:29.657Z,0
2022-09-18T01:19:28.228Z,0
2022-09-18T01:20:29.205Z,0
2022-09-18T01:21:28.560Z,0
2022-09-18T01:22:28.431Z,0
2022-09-18T01:23:29.196Z,0
2022-09-18T01:24:28.397Z,0
2022-09-18T01:25:29.054Z,0
2022-09-18T01:26:29.195Z,0
2022-09-18T01:27:28.859Z,0
2022-09-18T01:28:28.841Z,0
2022-09-18T01:29:28.560Z,0
2022-09-18T01:30:28.555Z,0
2022-09-18T01:31:29.014Z,0
2022-09-18T01:32:28.265Z,0
2022-09-18T01:33:28.778Z,0
2022-09-18T01:35:06.377Z,0
2022-09-18T01:35:50.102Z,0
2022-09-18T01:36:28.963Z,0
2022-09-18T01:37:28.311Z,0
2022-09-18T01:38:28.678Z,0
2022-09-18T01:39:28.421Z,0
2022-09-18T01:40:29.445Z,0
2022-09-18T01:41:28.532Z,0
2022-09-18T01:42:28.371Z,0
2022-09-18T01:43:27.843Z,0
2022-09-18T01:44:28.589Z,0
2022-09-18T01:45:28.328Z,0
2022-09-18T01:46:29.376Z,0
2022-09-18T01:47:28.541Z,0
2022-09-18T01:48:28.555Z,0
2022-09-18T01:49:28.251Z,0
2022-09-18T01:50:28.752Z,0
2022-09-18T01:51:28.356Z,0
2022-09-18T01:52:28.720Z,0
2022-09-18T01:53:28.839Z,0
2022-09-18T01:54:28.449Z,0
2022-09-18T01:55:27.921Z,0
2022-09-18T01:56:28.662Z,0
2022-09-18T01:57:28.263Z,0
2022-09-18T01:58:28.415Z,0
2022-09-18T01:59:28.118Z,0
2022-09-18T02:00:28.094Z,0
2022-09-18T02:01:29.028Z,0
2022-09-18T02:02:28.610Z,0
2022-09-18T02:03:28.310Z,0
2022-09-18T02:04:28.032Z,0
2022-09-18T02:05:27.758Z,0
2022-09-18T02:06:28.512Z,0
2022-09-18T02:07:28.627Z,0
2022-09-18T02:08:27.984Z,0
2022-09-18T02:09:27.821Z,0
2022-09-18T02:10:28.221Z,0
2022-09-18T02:11:28.198Z,0
2022-09-18T02:12:27.922Z,0
2022-09-18T02:13:28.022Z,0
2022-09-18T02:14:27.881Z,0
2022-09-18T02:15:27.870Z,0
2022-09-18T02:16:28.310Z,0
2022-09-18T02:17:27.831Z,0
2022-09-18T02:18:28.087Z,0
2022-09-18T02:19:27.558Z,0
2022-09-18T02:20:27.540Z,0
2022-09-18T02:21:28.040Z,0
2022-09-18T02:22:28.518Z,0
2022-09-18T02:23:28.162Z,0
2022-09-18T02:24:27.737Z,0
2022-09-18T02:25:28.355Z,0
2022-09-18T02:26:27.702Z,0
2022-09-18T02:27:27.435Z,0
2022-09-18T02:28:27.418Z,0
2022-09-18T02:29:28.039Z,0
2022-09-18T02:30:27.643Z,0
2022-09-18T02:31:28.012Z,0
2022-09-18T02:32:27.863Z,0
2022-09-18T02:33:27.860Z,0
2022-09-18T02:34:28.103Z,0
2022-09-18T02:35:28.087Z,0
2022-09-18T02:36:28.060Z,0
2022-09-18T02:37:27.285Z,0
2022-09-18T02:38:28.285Z,0
2022-09-18T02:39:27.641Z,0
2022-09-18T02:40:28.179Z,0
2022-09-18T02:41:28.109Z,0
2022-09-18T02:42:27.728Z,0
2022-09-18T02:43:27.710Z,0
2022-09-18T02:44:27.447Z,0
2022-09-18T02:45:27.537Z,0
2022-09-18T02:46:28.029Z,0
2022-09-18T02:47:26.876Z,0
2022-09-18T02:48:27.638Z,0
2022-09-18T02:49:27.609Z,0
2022-09-18T02:50:27.092Z,0
2022-09-18T02:51:27.348Z,0
2022-09-18T02:52:27.321Z,0
2022-09-18T02:53:27.048Z,0
2022-09-18T02:54:27.598Z,0
2022-09-18T02:55:27.396Z,0
2022-09-18T02:56:27.264Z,0
2022-09-18T02:57:27.103Z,0
2022-09-18T02:58:26.973Z,0
2022-09-18T02:59:27.226Z,0
2022-09-18T03:00:27.721Z,0
2022-09-18T03:01:27.841Z,0
2022-09-18T03:02:28.065Z,0
2022-09-18T03:03:27.430Z,0
2022-09-18T03:04:27.405Z,0
2022-09-18T03:05:27.399Z,0
2022-09-18T03:06:27.379Z,0
2022-09-18T03:07:27.597Z,0
2022-09-18T03:08:27.095Z,0
2022-09-18T03:09:27.081Z,0
2022-09-18T03:10:27.798Z,0
2022-09-18T03:11:27.155Z,0
2022-09-18T03:12:26.760Z,0
2022-09-18T03:13:27.392Z,0
2022-09-18T03:14:27.245Z,0
2022-09-18T03:15:27.225Z,0
2022-09-18T03:16:27.769Z,0
2022-09-18T03:17:27.334Z,0
2022-09-18T03:18:26.682Z,0
2022-09-18T03:19:26.921Z,0
2022-09-18T03:20:27.427Z,0
2022-09-18T03:21:26.890Z,0
2022-09-18T03:22:27.388Z,0
2022-09-18T03:23:27.122Z,0
2022-09-18T03:24:26.596Z,0
2022-09-18T03:25:27.082Z,0
2022-09-18T03:26:27.375Z,0
2022-09-18T03:27:27.203Z,0
2022-09-18T03:28:26.789Z,0
2022-09-18T03:29:27.146Z,0
2022-09-18T03:30:27.267Z,0
2022-09-18T03:31:27.247Z,0
2022-09-18T03:32:27.246Z,0
2022-09-18T03:49:37.711Z,0
2022-09-18T03:50:36.818Z,0
2022-09-18T03:51:36.815Z,0
2022-09-18T03:52:36.785Z,0
2022-09-18T03:53:36.799Z,0
2022-09-18T03:54:36.757Z,0
2022-09-18T03:55:35.988Z,0
2022-09-18T03:56:36.986Z,0
2022-09-18T03:57:36.730Z,0
2022-09-18T03:58:36.689Z,0
2022-09-18T03:59:37.080Z,0
2022-09-18T04:00:36.419Z,0
2022-09-18T04:01:36.813Z,0
2022-09-18T04:02:36.670Z,0
2022-09-18T04:03:36.433Z,0
2022-09-18T04:04:36.605Z,0
2022-09-18T04:05:37.468Z,0
2022-09-18T04:06:36.056Z,0
2022-09-18T04:07:36.296Z,0
2022-09-18T04:08:36.542Z,0
2022-09-18T04:09:36.527Z,0
2022-09-18T04:10:36.263Z,0
2022-09-18T04:11:35.983Z,0
2022-09-18T04:12:36.510Z,0
2022-09-18T04:13:36.501Z,0
2022-09-18T04:14:39.590Z,0
2022-09-18T04:15:36.182Z,0
2022-09-18T04:16:37.096Z,0
2022-09-18T04:17:36.646Z,0
2022-09-18T04:18:36.383Z,0
2022-09-18T04:19:36.365Z,0
2022-09-18T04:20:36.349Z,0
2022-09-18T04:21:37.268Z,0
2022-09-18T04:22:35.811Z,0
2022-09-18T04:23:36.067Z,0
2022-09-18T04:24:36.026Z,0
2022-09-18T04:25:36.014Z,0
2022-09-18T04:26:36.008Z,0
2022-09-18T04:27:35.732Z,0
2022-09-18T04:28:35.714Z,0
2022-09-18T04:29:35.959Z,0
2022-09-18T04:30:36.463Z,0
2022-09-18T04:31:36.539Z,0
2022-09-18T04:32:36.156Z,0
2022-09-18T04:33:35.892Z,0
2022-09-18T04:34:36.131Z,0
2022-09-18T04:35:35.867Z,0
2022-09-18T04:36:35.854Z,0
2022-09-18T04:37:36.965Z,0
2022-09-18T04:38:36.076Z,0
2022-09-18T04:39:35.817Z,0
2022-09-18T04:40:36.019Z,0
2022-09-18T04:41:36.294Z,0
2022-09-18T04:42:36.266Z,0
2022-09-18T04:43:35.741Z,0
2022-09-18T04:44:35.733Z,0
2022-09-18T04:45:35.710Z,0
2022-09-18T04:46:35.882Z,0
2022-09-18T04:47:35.726Z,0
2022-09-18T04:48:35.673Z,0
2022-09-18T04:49:35.907Z,0
2022-09-18T04:50:35.889Z,0
2022-09-18T04:51:35.645Z,0
2022-09-18T04:52:35.870Z,0
2022-09-18T04:53:36.716Z,0
2022-09-18T04:54:35.591Z,0
2022-09-18T04:55:35.822Z,0
2022-09-18T04:56:35.822Z,5
2022-09-18T04:57:35.736Z,5
2022-09-18T04:58:35.263Z,5
2022-09-18T04:59:35.750Z,5
2022-09-18T05:00:36.204Z,10
2022-09-18T05:01:35.749Z,10
2022-09-18T05:02:35.489Z,10
2022-09-18T05:03:35.180Z,10
2022-09-18T05:04:35.186Z,10
2022-09-18T05:05:35.726Z,10
2022-09-18T05:06:35.652Z,10
2022-09-18T05:07:35.640Z,10
2022-09-18T05:08:35.374Z,10
2022-09-18T05:09:36.492Z,15
2022-09-18T05:10:35.084Z,15
2022-09-18T05:11:35.232Z,15
2022-09-18T05:12:35.066Z,15
2022-09-18T05:13:35.807Z,15
2022-09-18T05:14:35.277Z,10
2022-09-18T05:15:35.536Z,10
2022-09-18T05:16:36.004Z,10
2022-09-18T05:17:35.493Z,15
2022-09-18T05:18:34.961Z,15
2022-09-18T05:19:35.468Z,15
2022-09-18T05:20:35.722Z,15
2022-09-18T05:21:35.688Z,15
2022-09-18T05:22:35.162Z,20
2022-09-18T05:23:35.418Z,15
2022-09-18T05:24:35.143Z,20
2022-09-18T05:25:36.270Z,20
2022-09-18T05:26:35.108Z,15
2022-09-18T05:27:35.686Z,15
2022-09-18T05:28:35.095Z,15
2022-09-18T05:29:35.059Z,15
2022-09-18T05:30:35.039Z,20
2022-09-18T05:31:35.568Z,20
2022-09-18T05:32:35.273Z,20
2022-09-18T05:33:35.003Z,15
2022-09-18T05:34:35.257Z,20
2022-09-18T05:35:34.970Z,25
2022-09-18T05:36:35.218Z,30
2022-09-18T05:37:35.203Z,35
2022-09-18T05:38:34.675Z,35
2022-09-18T05:39:34.658Z,30
2022-09-18T05:40:35.693Z,25
2022-09-18T05:41:36.033Z,25
2022-09-18T05:42:34.612Z,25
2022-09-18T05:43:34.853Z,35
2022-09-18T05:44:35.344Z,35
2022-09-18T05:45:34.564Z,25
2022-09-18T05:46:35.014Z,30
2022-09-18T05:47:34.543Z,25
2022-09-18T05:48:34.780Z,30
2022-09-18T05:49:35.036Z,40
2022-09-18T05:50:34.760Z,45
2022-09-18T05:51:35.009Z,45
2022-09-18T05:52:34.715Z,45
2022-09-18T05:53:34.459Z,45
2022-09-18T05:54:34.187Z,40
2022-09-18T05:55:38.612Z,45
2022-09-18T05:56:34.972Z,55
2022-09-18T05:57:35.775Z,50
2022-09-18T05:58:35.163Z,55
2022-09-18T05:59:34.619Z,50
2022-09-18T06:00:35.137Z,55
2022-09-18T06:01:34.668Z,55
2022-09-18T06:02:35.151Z,50
2022-09-18T06:03:34.973Z,55
2022-09-18T06:04:34.555Z,45
2022-09-18T06:05:34.816Z,35
2022-09-18T06:06:34.557Z,45
2022-09-18T06:07:34.543Z,55
2022-09-18T06:08:34.536Z,50
2022-09-18T06:09:34.233Z,45
2022-09-18T06:10:34.574Z,50
2022-09-18T06:11:34.214Z,50
2022-09-18T06:12:34.689Z,45
2022-09-18T06:13:35.575Z,50
2022-09-18T06:14:34.666Z,45
2022-09-18T06:15:34.646Z,40
2022-09-18T06:16:37.530Z,45
2022-09-18T06:17:34.372Z,65
2022-09-18T06:18:34.366Z,75
2022-09-18T06:19:34.081Z,55
2022-09-18T06:20:34.947Z,50
2022-09-18T06:21:34.327Z,50
2022-09-18T06:22:34.319Z,40
2022-09-18T06:23:34.273Z,35
2022-09-18T06:24:34.791Z,45
2022-09-18T06:25:34.240Z,40
2022-09-18T06:26:33.985Z,40
2022-09-18T06:27:34.211Z,50
2022-09-18T06:28:33.950Z,45
2022-09-18T06:29:35.304Z,45
2022-09-18T06:30:34.731Z,55
2022-09-18T06:31:34.818Z,60
2022-09-18T06:32:34.146Z,60
2022-09-18T06:33:34.129Z,60
2022-09-18T06:34:38.982Z,65
2022-09-18T06:35:34.372Z,80
2022-09-18T06:36:34.118Z,80
2022-09-18T06:37:34.359Z,80
2022-09-18T06:38:34.318Z,105
2022-09-18T06:39:34.303Z,125
2022-09-18T06:40:34.967Z,120
2022-09-18T06:41:34.288Z,120
2022-09-18T06:42:34.261Z,125
2022-09-18T06:43:34.510Z,125
2022-09-18T06:44:34.253Z,120
2022-09-18T06:45:35.005Z,135
2022-09-18T06:46:34.813Z,150
2022-09-18T06:47:33.936Z,150
2022-09-18T06:48:34.422Z,135
2022-09-18T06:49:34.166Z,125
2022-09-18T06:50:33.991Z,140
2022-09-18T06:51:33.894Z,135
2022-09-18T06:52:33.858Z,145
2022-09-18T06:53:33.845Z,130
2022-09-18T06:54:34.094Z,130
2022-09-18T06:55:33.310Z,110
2022-09-18T06:56:34.058Z,90
2022-09-18T06:57:34.048Z,100
2022-09-18T06:58:33.271Z,125
2022-09-18T06:59:33.557Z,125
2022-09-18T07:00:33.949Z,110
2022-09-18T07:01:35.298Z,100
2022-09-18T07:02:33.764Z,95
2022-09-18T07:03:33.214Z,115
2022-09-18T07:04:33.697Z,170
2022-09-18T07:05:33.934Z,195
2022-09-18T07:06:33.928Z,130
2022-09-18T07:07:33.922Z,120
2022-09-18T07:08:33.647Z,90
2022-09-18T07:09:33.873Z,90
2022-09-18T07:10:33.726Z,90
2022-09-18T07:11:34.115Z,110
2022-09-18T07:12:34.107Z,150
2022-09-18T07:13:33.568Z,170
2022-09-18T07:14:33.820Z,225
2022-09-18T07:15:33.556Z,240
2022-09-18T07:16:33.973Z,230
2022-09-18T07:17:36.712Z,155
2022-09-18T07:18:33.755Z,165
2022-09-18T07:19:33.490Z,180
2022-09-18T07:20:33.315Z,175
2022-09-18T07:21:33.475Z,170
2022-09-18T07:22:33.454Z,150
2022-09-18T07:23:32.919Z,135
2022-09-18T07:24:33.674Z,145
2022-09-18T07:25:33.952Z,140
2022-09-18T07:26:32.891Z,145
2022-09-18T07:27:33.641Z,170
2022-09-18T07:28:33.872Z,110
2022-09-18T07:29:33.614Z,130
2022-09-18T07:30:33.452Z,170
2022-09-18T07:31:34.176Z,230
2022-09-18T07:32:33.050Z,200
2022-09-18T07:33:34.417Z,125
2022-09-18T07:34:34.019Z,140
2022-09-18T07:35:33.293Z,185
2022-09-18T07:36:33.255Z,135
2022-09-18T07:37:33.246Z,130
2022-09-18T07:38:33.253Z,195
2022-09-18T07:39:32.971Z,215
2022-09-18T07:40:33.992Z,200
2022-09-18T07:41:32.950Z,185
2022-09-18T07:42:32.666Z,190
2022-09-18T07:43:33.461Z,200
2022-09-18T07:44:33.702Z,145
2022-09-18T07:45:33.162Z,140
2022-09-18T07:46:33.881Z,130
2022-09-18T07:47:33.113Z,150
2022-09-18T07:48:33.611Z,140
2022-09-18T07:49:34.226Z,170
2022-09-18T07:50:33.085Z,185
2022-09-18T07:51:35.516Z,205
2022-09-18T07:52:32.787Z,165
2022-09-18T07:53:33.543Z,120
2022-09-18T07:54:32.781Z,140
2022-09-18T07:55:33.004Z,150
2022-09-18T07:56:32.746Z,220
2022-09-18T07:57:33.013Z,160
2022-09-18T07:58:32.986Z,130
2022-09-18T07:59:32.461Z,145
2022-09-18T08:00:32.687Z,170
2022-09-18T08:01:32.821Z,150
2022-09-18T08:02:33.915Z,175
2022-09-18T08:03:34.299Z,180
2022-09-18T08:04:33.414Z,130
2022-09-18T08:05:33.997Z,110
2022-09-18T08:06:32.627Z,125
2022-09-18T08:07:32.638Z,130
2022-09-18T08:08:32.847Z,140
2022-09-18T08:09:33.345Z,165
2022-09-18T08:10:33.085Z,220
2022-09-18T08:11:33.335Z,195
2022-09-18T08:12:32.560Z,175
2022-09-18T08:13:33.296Z,185
2022-09-18T08:14:37.822Z,195
2022-09-18T08:15:32.510Z,160
2022-09-18T08:16:33.525Z,145
2022-09-18T08:17:32.989Z,150
2022-09-18T08:18:32.727Z,155
2022-09-18T08:19:32.978Z,180
2022-09-18T08:20:32.470Z,200
2022-09-18T08:21:33.796Z,210
2022-09-18T08:22:33.207Z,250
2022-09-18T08:23:32.937Z,300
2022-09-18T08:24:32.671Z,275
2022-09-18T08:25:32.651Z,235
2022-09-18T08:26:32.885Z,280
2022-09-18T08:27:32.622Z,310
2022-09-18T08:28:32.360Z,285
2022-09-18T08:29:32.847Z,205
2022-09-18T08:30:32.851Z,200
2022-09-18T08:31:33.203Z,170
2022-09-18T08:32:32.562Z,185
2022-09-18T08:33:33.056Z,190
2022-09-18T08:34:32.084Z,195
2022-09-18T08:35:33.040Z,195
2022-09-18T08:36:32.256Z,165
2022-09-18T08:37:33.651Z,190
2022-09-18T08:38:32.769Z,205
2022-09-18T08:39:32.495Z,270
2022-09-18T08:40:33.153Z,300
2022-09-18T08:41:32.455Z,295
2022-09-18T08:42:35.235Z,275
2022-09-18T08:43:32.954Z,215
2022-09-18T08:44:32.174Z,185
2022-09-18T08:45:32.194Z,205
2022-09-18T08:46:33.215Z,240
2022-09-18T08:47:32.405Z,255
2022-09-18T08:48:32.132Z,210
2022-09-18T08:49:32.371Z,165
2022-09-18T08:50:38.649Z,120
2022-09-18T08:51:32.612Z,130
2022-09-18T08:52:32.342Z,165
2022-09-18T08:53:33.521Z,200
2022-09-18T08:54:32.311Z,190
2022-09-18T08:55:32.828Z,215
2022-09-18T08:56:32.040Z,255
2022-09-18T08:57:32.547Z,220
2022-09-18T08:58:32.015Z,170
2022-09-18T08:59:32.763Z,160
2022-09-18T09:00:32.656Z,205
2022-09-18T09:01:32.847Z,235
2022-09-18T09:02:34.754Z,250
2022-09-18T09:03:31.946Z,280
2022-09-18T09:04:32.467Z,295
2022-09-18T09:05:31.931Z,300
2022-09-18T09:06:32.163Z,305
2022-09-18T09:07:32.413Z,300
2022-09-18T09:08:32.663Z,300
2022-09-18T09:09:33.259Z,290
2022-09-18T09:10:32.386Z,280
2022-09-18T09:11:31.859Z,285
2022-09-18T09:12:32.103Z,280
2022-09-18T09:13:32.361Z,240
2022-09-18T09:15:04.685Z,150
2022-09-18T09:15:32.332Z,145
2022-09-18T09:16:32.749Z,165
2022-09-18T09:17:32.311Z,195
2022-09-18T09:18:32.034Z,230
2022-09-18T09:19:32.047Z,255
2022-09-18T09:20:32.286Z,270
2022-09-18T09:21:32.001Z,290
2022-09-18T09:22:31.996Z,265
2022-09-18T09:23:32.504Z,270
2022-09-18T09:24:32.016Z,310
2022-09-18T09:25:33.074Z,380
2022-09-18T09:26:32.206Z,350
2022-09-18T09:27:32.199Z,280
2022-09-18T09:28:31.933Z,260
2022-09-18T09:29:31.667Z,250
2022-09-18T09:30:32.153Z,300
2022-09-18T09:31:32.478Z,370
2022-09-18T09:32:31.634Z,380
2022-09-18T09:33:32.118Z,355
2022-09-18T09:34:31.851Z,335
2022-09-18T09:35:32.358Z,320
2022-09-18T09:36:31.587Z,325
2022-09-18T09:37:36.418Z,330
2022-09-18T09:38:31.559Z,295
2022-09-18T09:39:31.554Z,280
2022-09-18T09:40:31.902Z,260
2022-09-18T09:41:32.920Z,245
2022-09-18T09:42:31.785Z,250
2022-09-18T09:43:31.505Z,235
2022-09-18T09:44:31.756Z,210
2022-09-18T09:45:31.751Z,145
2022-09-18T09:46:32.301Z,150
2022-09-18T09:47:31.720Z,185
2022-09-18T09:48:31.454Z,215
2022-09-18T09:49:31.710Z,220
2022-09-18T09:50:32.396Z,230
2022-09-18T09:51:31.697Z,220
2022-09-18T09:52:31.926Z,180
2022-09-18T09:53:31.658Z,155
2022-09-18T09:54:31.398Z,180
2022-09-18T09:55:31.389Z,215
2022-09-18T09:56:31.889Z,200
2022-09-18T09:57:32.742Z,170
2022-09-18T09:58:31.860Z,150
2022-09-18T09:59:31.844Z,150
2022-09-18T10:00:32.078Z,135
2022-09-18T10:01:31.423Z,120
2022-09-18T10:02:32.119Z,105
2022-09-18T10:03:31.797Z,95
2022-09-18T10:04:31.485Z,80
2022-09-18T10:05:31.584Z,70
2022-09-18T10:06:31.786Z,95
2022-09-18T10:07:31.781Z,140
2022-09-18T10:08:31.003Z,215
2022-09-18T10:09:31.220Z,270
2022-09-18T10:10:31.224Z,295
2022-09-18T10:11:31.448Z,280
2022-09-18T10:12:31.443Z,230
2022-09-18T10:13:32.573Z,140
2022-09-18T10:14:31.680Z,95
2022-09-18T10:15:31.401Z,70
2022-09-18T10:16:31.714Z,55
2022-09-18T10:17:31.645Z,60
2022-09-18T10:18:31.893Z,90
2022-09-18T10:19:31.622Z,115
2022-09-18T10:20:31.098Z,145
2022-09-18T10:21:31.379Z,205
2022-09-18T10:22:31.079Z,265
2022-09-18T10:23:39.983Z,255
2022-09-18T10:24:31.049Z,215
2022-09-18T10:25:31.045Z,165
2022-09-18T10:26:31.798Z,115
2022-09-18T10:27:31.027Z,105
2022-09-18T10:28:31.507Z,90
2022-09-18T10:29:36.387Z,70
2022-09-18T10:30:30.984Z,65
2022-09-18T10:31:31.888Z,90
2022-09-18T10:32:31.206Z,115
2022-09-18T10:33:31.455Z,115
2022-09-18T10:34:31.189Z,125
2022-09-18T10:35:31.426Z,115
2022-09-18T10:36:31.683Z,90
2022-09-18T10:37:31.475Z,80
2022-09-18T10:38:31.398Z,70
2022-09-18T10:39:36.747Z,60
2022-09-18T10:40:31.565Z,70
2022-09-18T10:41:31.120Z,95
2022-09-18T10:42:30.825Z,105
2022-09-18T10:43:31.592Z,115
2022-09-18T10:44:31.338Z,110
2022-09-18T10:45:32.228Z,105
2022-09-18T10:46:31.130Z,95
2022-09-18T10:47:31.027Z,90
2022-09-18T10:48:30.772Z,130
2022-09-18T10:49:31.276Z,140
2022-09-18T10:50:36.497Z,110
2022-09-18T10:51:30.986Z,105
2022-09-18T10:52:30.967Z,155
2022-09-18T10:53:30.714Z,230
2022-09-18T10:54:31.209Z,255
2022-09-18T10:55:30.979Z,235
2022-09-18T10:56:30.675Z,205
2022-09-18T10:57:30.915Z,260
2022-09-18T10:58:30.666Z,325
2022-09-18T10:59:31.496Z,310
2022-09-18T11:00:30.839Z,280
2022-09-18T11:01:32.334Z,295
2022-09-18T11:02:31.931Z,280
2022-09-18T11:03:30.609Z,255
2022-09-18T11:04:31.344Z,270
2022-09-18T11:05:31.083Z,305
2022-09-18T11:06:30.737Z,325
2022-09-18T11:07:35.130Z,345
2022-09-18T11:08:30.535Z,345
2022-09-18T11:09:31.035Z,355
2022-09-18T11:10:30.757Z,355
2022-09-18T11:11:30.496Z,340
2022-09-18T11:12:30.497Z,320
2022-09-18T11:13:30.514Z,310
2022-09-18T11:14:30.976Z,290
2022-09-18T11:15:30.705Z,275
2022-09-18T11:16:31.166Z,260
2022-09-18T11:17:31.841Z,270
2022-09-18T11:18:30.926Z,265
2022-09-18T11:19:30.909Z,255
2022-09-18T11:20:30.655Z,240
2022-09-18T11:21:30.666Z,230
2022-09-18T11:22:30.662Z,250
2022-09-18T11:23:31.121Z,245
2022-09-18T11:24:30.116Z,250
2022-09-18T11:25:30.860Z,215
2022-09-18T11:26:30.861Z,210
2022-09-18T11:27:30.578Z,245
2022-09-18T11:28:30.868Z,265
2022-09-18T11:29:30.308Z,280
2022-09-18T11:30:30.556Z,300
2022-09-18T11:31:31.162Z,320
2022-09-18T11:32:29.998Z,325
2022-09-18T11:33:31.647Z,325
2022-09-18T11:34:30.756Z,320
2022-09-18T11:35:30.784Z,320
2022-09-18T11:36:30.733Z,310
2022-09-18T11:37:30.749Z,305
2022-09-18T11:38:30.773Z,290
2022-09-18T11:39:33.600Z,280
2022-09-18T11:40:31.290Z,275
2022-09-18T11:41:30.712Z,275
2022-09-18T11:42:30.170Z,290
2022-09-18T11:43:30.922Z,305
2022-09-18T11:44:30.655Z,315
2022-09-18T11:45:29.917Z,310
2022-09-18T11:46:30.493Z,300
2022-09-18T11:47:30.669Z,290
2022-09-18T11:48:30.857Z,285
2022-09-18T11:49:31.485Z,290
2022-09-18T11:50:30.583Z,295
2022-09-18T11:51:30.070Z,285
2022-09-18T11:52:30.424Z,265
2022-09-18T11:53:30.610Z,240
2022-09-18T11:54:30.542Z,230
2022-09-18T11:55:30.564Z,220
2022-09-18T11:56:30.027Z,205
2022-09-18T11:57:30.278Z,185
2022-09-18T11:58:30.253Z,190
2022-09-18T11:59:30.242Z,185
2022-09-18T12:00:30.795Z,155
2022-09-18T12:01:30.223Z,140
2022-09-18T12:02:30.958Z,160
2022-09-18T12:03:30.790Z,170
2022-09-18T12:04:30.438Z,185
2022-09-18T12:05:31.312Z,215
2022-09-18T12:06:29.908Z,190
2022-09-18T12:07:47.491Z,120
2022-09-18T12:08:29.318Z,100
2022-09-18T12:09:29.056Z,80
2022-09-18T12:10:28.770Z,90
2022-09-18T12:11:28.744Z,135
2022-09-18T12:12:28.985Z,125
2022-09-18T12:13:28.727Z,125
2022-09-18T12:14:28.713Z,130
2022-09-18T12:15:28.198Z,135
2022-09-18T12:16:29.092Z,145
2022-09-18T12:17:28.941Z,170
2022-09-18T12:18:28.431Z,200
2022-09-18T12:19:28.661Z,230
2022-09-18T12:20:28.635Z,240
2022-09-18T12:21:29.767Z,265
2022-09-18T12:22:28.879Z,280
2022-09-18T12:23:28.362Z,290
2022-09-18T12:24:28.591Z,285
2022-09-18T12:25:28.329Z,290
2022-09-18T12:26:28.323Z,290
2022-09-18T12:27:33.160Z,285
2022-09-18T12:28:28.811Z,280
2022-09-18T12:29:28.785Z,280
2022-09-18T12:30:28.520Z,290
2022-09-18T12:31:28.913Z,305
2022-09-18T12:32:29.006Z,305
2022-09-18T12:33:32.267Z,285
2022-09-18T12:34:28.470Z,265
2022-09-18T12:35:28.480Z,250
2022-09-18T12:36:28.462Z,255
2022-09-18T12:37:29.558Z,250
2022-09-18T12:38:28.695Z,255
2022-09-18T12:39:29.350Z,290
2022-09-18T12:40:29.816Z,300
2022-09-18T12:41:29.071Z,300
2022-09-18T12:42:29.059Z,300
2022-09-18T12:43:29.063Z,270
2022-09-18T12:44:28.533Z,235
2022-09-18T12:45:28.982Z,220
2022-09-18T12:46:29.017Z,215
2022-09-18T12:47:28.762Z,150
2022-09-18T12:48:28.753Z,150
2022-09-18T12:49:29.235Z,150
2022-09-18T12:50:29.492Z,115
2022-09-18T12:51:28.997Z,110
2022-09-18T12:52:33.020Z,110
2022-09-18T12:53:29.551Z,115
2022-09-18T12:54:29.190Z,140
2022-09-18T12:55:28.918Z,160
2022-09-18T12:56:29.154Z,160
2022-09-18T12:57:28.890Z,125
2022-09-18T12:58:28.367Z,80
2022-09-18T12:59:28.880Z,80
2022-09-18T13:00:28.628Z,80
2022-09-18T13:01:28.730Z,70
2022-09-18T13:02:28.834Z,80
2022-09-18T13:03:29.140Z,80
2022-09-18T13:04:28.802Z,95
2022-09-18T13:05:28.541Z,90
2022-09-18T13:06:29.048Z,105
2022-09-18T13:07:28.792Z,135
2022-09-18T13:08:29.016Z,145
2022-09-18T13:09:34.681Z,175
2022-09-18T13:10:28.491Z,190
2022-09-18T13:11:29.253Z,185
2022-09-18T13:12:28.730Z,190
2022-09-18T13:13:28.188Z,180
2022-09-18T13:14:28.690Z,165
2022-09-18T13:15:28.945Z,145
2022-09-18T13:16:30.363Z,130
2022-09-18T13:17:29.634Z,120
2022-09-18T13:18:29.627Z,110
2022-09-18T13:19:29.106Z,95
2022-09-18T13:20:29.376Z,80
2022-09-18T13:21:29.345Z,75
2022-09-18T13:22:29.324Z,65
2022-09-18T13:23:29.061Z,65
2022-09-18T13:24:29.809Z,75
2022-09-18T13:25:30.082Z,85
2022-09-18T13:26:29.025Z,105
2022-09-18T13:27:29.514Z,115
2022-09-18T13:28:29.259Z,110
2022-09-18T13:29:29.500Z,130
2022-09-18T13:30:29.032Z,135
2022-09-18T13:31:29.281Z,130
2022-09-18T13:32:29.473Z,115
2022-09-18T13:33:29.450Z,95
2022-09-18T13:34:29.179Z,90
2022-09-18T13:35:28.932Z,90
2022-09-18T13:36:29.161Z,85
2022-09-18T13:37:29.386Z,75
2022-09-18T13:38:28.902Z,70
2022-09-18T13:39:29.888Z,75
2022-09-18T13:40:29.946Z,65
2022-09-18T13:41:29.754Z,80
2022-09-18T13:42:29.398Z,90
2022-09-18T13:43:28.813Z,90
2022-09-18T13:44:29.136Z,105
2022-09-18T13:45:29.040Z,110
2022-09-18T13:46:29.856Z,100
2022-09-18T13:47:29.279Z,90
2022-09-18T13:48:29.012Z,90
2022-09-18T13:49:29.020Z,110
2022-09-18T13:50:29.372Z,110
2022-09-18T13:51:33.819Z,105
2022-09-18T13:52:28.946Z,90
2022-09-18T13:53:28.943Z,90
2022-09-18T13:54:28.680Z,90
2022-09-18T13:55:28.655Z,95
2022-09-18T13:56:29.429Z,105
2022-09-18T13:57:29.771Z,105
2022-09-18T13:58:29.128Z,100
2022-09-18T13:59:29.125Z,95
2022-09-18T14:00:29.401Z,80
2022-09-18T14:01:28.660Z,85
2022-09-18T14:02:28.786Z,80
2022-09-18T14:03:33.866Z,90
2022-09-18T14:04:29.308Z,90
2022-09-18T14:05:28.802Z,90
2022-09-18T14:06:28.510Z,85
2022-09-18T14:07:28.799Z,85
2022-09-18T14:08:28.744Z,85
2022-09-18T14:09:28.979Z,85
2022-09-18T14:10:28.716Z,85
2022-09-18T14:11:28.193Z,80
2022-09-18T14:12:29.190Z,95
2022-09-18T14:13:29.556Z,100
2022-09-18T14:14:28.920Z,100
2022-09-18T14:15:28.418Z,95
2022-09-18T14:16:29.017Z,90
2022-09-18T14:17:29.172Z,90
2022-09-18T14:18:28.874Z,90
2022-09-18T14:19:28.346Z,95
2022-09-18T14:20:29.152Z,95
2022-09-18T14:21:28.313Z,90
2022-09-18T14:22:28.814Z,80
2022-09-18T14:23:28.547Z,85
2022-09-18T14:24:28.546Z,90
2022-09-18T14:25:31.211Z,85
2022-09-18T14:26:29.033Z,80
2022-09-18T14:27:28.248Z,85
2022-09-18T14:28:28.738Z,70